Time;durP1;ratioP1;P1;durP2;ratioP2;P2;SDS_P1;SDS_P2;PMS_P1;PMS_P2;Temp;Humidity;BMP_temperature;BMP_pressure;BME280_temperature;BME280_humidity;BME280_pressure;Samples;Min_cycle;Max_cycle;Signal;HPM_P1;HPM_P2
2022/11/10 00:02:38;;;;;;;30.10;27.20;;;;;;;21.03;43.35;95684.69;6025150;28;103662;-68
2022/11/10 00:05:43;;;;;;;28.77;26.37;;;;;;;21.03;43.21;95689.22;6040565;28;103817;-68
2022/11/10 00:08:46;;;;;;;28.23;25.90;;;;;;;21.00;43.29;95685.22;6026754;28;104135;-68
2022/11/10 00:11:49;;;;;;;28.47;25.97;;;;;;;21.01;43.40;95684.19;6018674;28;103664;-68
2022/11/10 00:18:12;;;;;;;27.83;25.63;;;;;;;20.98;43.31;95687.38;6028834;28;103226;-69
2022/11/10 00:21:19;;;;;;;26.57;24.37;;;;;;;20.97;43.15;95679.69;6011984;28;104359;-68
2022/11/10 00:24:22;;;;;;;27.43;25.13;;;;;;;20.96;43.14;95680.75;6029293;28;103884;-68
2022/11/10 00:27:25;;;;;;;28.00;25.43;;;;;;;20.96;43.22;95683.41;6025602;28;103734;-68
2022/11/10 00:30:28;;;;;;;26.90;24.60;;;;;;;20.93;43.25;95687.44;6014527;28;103676;-69
2022/11/10 00:33:34;;;;;;;27.03;24.67;;;;;;;20.93;43.26;95692.75;6000404;28;103802;-69
2022/11/10 00:36:39;;;;;;;27.37;24.93;;;;;;;20.92;43.34;95683.19;6033318;28;104301;-69
2022/11/10 00:39:42;;;;;;;26.27;23.90;;;;;;;20.88;43.41;95680.31;6011507;28;103949;-68
2022/11/10 00:42:45;;;;;;;27.23;24.93;;;;;;;20.87;43.07;95678.72;6008555;29;103720;-68
2022/11/10 00:45:48;;;;;;;27.00;24.30;;;;;;;20.87;43.42;95676.06;6033122;28;103689;-68
2022/11/10 00:48:51;;;;;;;25.80;23.57;;;;;;;20.85;43.35;95670.25;6020955;28;103960;-68
2022/11/10 00:51:56;;;;;;;26.87;24.57;;;;;;;20.85;43.26;95675.56;6030483;28;103656;-68
2022/11/10 00:54:59;;;;;;;26.43;24.23;;;;;;;20.82;42.97;95668.13;6015250;28;104037;-69
2022/11/10 00:58:02;;;;;;;27.10;24.77;;;;;;;20.84;42.96;95670.53;6031262;28;104543;-68
2022/11/10 01:01:05;;;;;;;26.27;24.03;;;;;;;20.83;43.18;95667.06;6024403;28;103907;-68
2022/11/10 01:04:09;;;;;;;26.63;24.33;;;;;;;20.83;42.91;95661.72;6017588;28;103828;-68
2022/11/10 01:07:13;;;;;;;26.43;24.33;;;;;;;20.80;42.89;95667.63;6008392;28;104811;-68
2022/11/10 01:10:17;;;;;;;26.50;24.20;;;;;;;20.79;43.17;95662.59;6016773;29;106370;-68
2022/11/10 01:13:20;;;;;;;25.43;23.17;;;;;;;20.78;43.10;95659.13;6022503;28;103871;-68
2022/11/10 01:16:25;;;;;;;24.73;22.53;;;;;;;20.76;43.29;95658.63;6021398;28;104012;-69
2022/11/10 01:19:28;;;;;;;24.43;22.43;;;;;;;20.75;43.29;95667.69;6015236;28;103817;-68
2022/11/10 01:22:33;;;;;;;25.40;23.27;;;;;;;20.75;43.05;95661.56;6018583;28;103736;-68
2022/11/10 01:25:36;;;;;;;25.07;22.97;;;;;;;20.75;43.02;95651.72;6017291;28;106788;-68
2022/11/10 01:28:39;;;;;;;24.67;22.67;;;;;;;20.74;43.27;95650.13;6008029;28;104996;-69
2022/11/10 01:31:42;;;;;;;24.90;22.80;;;;;;;20.73;42.90;95661.84;6019855;28;103904;-68
2022/11/10 01:34:45;;;;;;;24.73;22.43;;;;;;;20.71;42.86;95653.38;6036198;28;103529;-68
2022/11/10 01:37:51;;;;;;;24.87;22.77;;;;;;;20.70;43.17;95648.34;6016691;28;103882;-68
2022/11/10 01:40:54;;;;;;;24.67;22.47;;;;;;;20.70;43.16;95657.09;6029328;28;103943;-68
2022/11/10 01:44:17;;;;;;;23.33;21.27;;;;;;;20.71;43.16;95660.56;6032838;28;104013;-68
2022/11/10 01:47:20;;;;;;;24.07;21.97;;;;;;;20.67;43.27;95655.00;6021376;28;103905;-69
2022/11/10 01:50:28;;;;;;;23.33;21.40;;;;;;;20.70;43.32;95651.00;6017676;28;103892;-68
2022/11/10 01:53:36;;;;;;;23.50;21.50;;;;;;;20.68;43.16;95656.59;6014284;28;103784;-68
2022/11/10 01:56:43;;;;;;;23.70;21.80;;;;;;;20.67;43.08;95654.19;6022281;28;104456;-68
2022/11/10 01:59:49;;;;;;;22.77;20.87;;;;;;;20.67;42.90;95654.19;6026852;28;104280;-68
2022/11/10 02:02:58;;;;;;;23.80;21.80;;;;;;;20.65;42.92;95656.34;6007500;28;103721;-68
2022/11/10 02:06:01;;;;;;;24.40;22.27;;;;;;;20.66;43.05;95657.91;6017188;28;104906;-68
2022/11/10 02:09:06;;;;;;;24.00;21.90;;;;;;;20.65;43.30;95656.34;6005507;28;103731;-68
2022/11/10 02:12:09;;;;;;;23.83;21.80;;;;;;;20.63;43.23;95652.09;6020896;28;103789;-68
2022/11/10 02:15:16;;;;;;;23.67;21.47;;;;;;;20.62;43.25;95663.00;6015032;28;103926;-68
2022/11/10 02:18:19;;;;;;;23.13;21.13;;;;;;;20.62;43.06;95657.69;6023580;28;104397;-68
2022/11/10 02:21:23;;;;;;;23.10;21.00;;;;;;;20.61;42.75;95664.09;6024067;28;103900;-69
2022/11/10 02:24:26;;;;;;;22.17;20.37;;;;;;;20.63;43.22;95660.06;6034500;28;103888;-70
2022/11/10 02:27:30;;;;;;;22.80;20.80;;;;;;;20.63;42.88;95669.91;6021785;28;104300;-68
2022/11/10 02:30:33;;;;;;;22.93;20.80;;;;;;;20.58;43.21;95665.44;6016911;28;103905;-68
2022/11/10 02:33:37;;;;;;;22.50;20.60;;;;;;;20.57;43.33;95663.88;6016059;28;103892;-68
2022/11/10 02:36:41;;;;;;;23.77;21.77;;;;;;;20.56;42.80;95670.25;6005675;28;103732;-68
2022/11/10 02:39:44;;;;;;;22.83;20.90;;;;;;;20.56;42.86;95664.94;6014718;28;104136;-67
2022/11/10 02:42:47;;;;;;;23.23;21.27;;;;;;;20.57;43.11;95677.16;6014372;28;104132;-69
2022/11/10 02:45:50;;;;;;;23.37;21.47;;;;;;;20.56;42.94;95674.78;6015932;28;104007;-69
2022/11/10 02:48:53;;;;;;;22.70;20.77;;;;;;;20.55;43.05;95673.19;6004163;28;106260;-67
2022/11/10 02:51:58;;;;;;;22.70;20.80;;;;;;;20.56;42.73;95680.09;6023545;28;103837;-65
2022/11/10 02:55:01;;;;;;;23.13;21.23;;;;;;;20.54;42.83;95676.94;6034937;28;103700;-68
2022/11/10 02:58:04;;;;;;;22.20;20.40;;;;;;;20.52;42.97;95685.19;6023198;28;104771;-68
2022/11/10 03:01:07;;;;;;;22.07;20.20;;;;;;;20.52;42.94;95681.75;6010323;28;103861;-68
2022/11/10 03:04:10;;;;;;;23.07;20.97;;;;;;;20.50;43.10;95686.50;6018949;28;103778;-68
2022/11/10 03:07:15;;;;;;;21.13;19.20;;;;;;;20.48;43.13;95686.00;6023150;28;103917;-68
2022/11/10 03:10:18;;;;;;;22.00;20.20;;;;;;;20.42;43.15;95677.28;6015976;28;105160;-70
2022/11/10 03:13:22;;;;;;;22.10;20.20;;;;;;;20.40;43.02;95682.09;6020808;28;103815;-68
2022/11/10 03:16:25;;;;;;;20.40;18.63;;;;;;;20.40;43.25;95681.31;6034726;28;103345;-68
2022/11/10 03:19:28;;;;;;;19.47;17.87;;;;;;;20.37;43.28;95687.97;6018698;28;103901;-68
2022/11/10 03:22:33;;;;;;;20.80;19.00;;;;;;;20.38;43.49;95683.44;6009170;28;105700;-68
2022/11/10 03:25:37;;;;;;;21.67;19.77;;;;;;;20.34;43.35;95687.75;6036438;28;103909;-68
2022/11/10 03:28:40;;;;;;;21.23;19.43;;;;;;;20.35;43.26;95684.81;6028619;28;103493;-68
2022/11/10 03:31:43;;;;;;;20.60;18.90;;;;;;;20.33;43.21;95689.56;6028441;28;103182;-68
2022/11/10 03:34:46;;;;;;;20.33;18.73;;;;;;;20.31;43.33;95684.53;5963959;28;1321794;-68
2022/11/10 03:37:50;;;;;;;21.20;19.40;;;;;;;20.30;43.40;95693.59;6018989;28;103966;-68
2022/11/10 03:40:53;;;;;;;20.03;18.20;;;;;;;20.28;43.57;95695.72;6019724;28;103914;-68
2022/11/10 03:44:16;;;;;;;20.07;18.37;;;;;;;20.30;43.32;95704.22;6013765;29;103954;-68
2022/11/10 03:47:20;;;;;;;19.90;18.10;;;;;;;20.28;43.29;95695.72;6024881;28;103657;-69
2022/11/10 03:50:23;;;;;;;18.97;17.37;;;;;;;20.27;43.16;95702.13;6020901;28;104351;-68
2022/11/10 03:53:27;;;;;;;19.60;17.90;;;;;;;20.28;43.34;95705.56;6041553;28;103886;-68
2022/11/10 03:56:30;;;;;;;20.43;18.73;;;;;;;20.26;43.22;95705.84;6009178;28;103711;-68
2022/11/10 03:59:33;;;;;;;18.93;17.33;;;;;;;20.23;43.12;95703.72;6018780;28;104016;-68
2022/11/10 04:02:37;;;;;;;19.33;17.73;;;;;;;20.21;43.44;95708.53;6021191;28;104377;-68
2022/11/10 04:09:02;;;;;;;18.93;17.33;;;;;;;20.26;43.03;95708.50;6026670;28;103835;-68
2022/11/10 04:15:42;;;;;;;19.87;18.17;;;;;;;20.28;43.26;95702.91;6030021;28;103926;-69
2022/11/10 04:18:45;;;;;;;18.77;17.17;;;;;;;20.28;43.20;95702.91;6016267;28;104259;-68
2022/11/10 04:21:48;;;;;;;18.83;17.13;;;;;;;20.28;43.18;95709.03;6019870;28;103912;-68
2022/11/10 04:24:52;;;;;;;18.07;16.47;;;;;;;20.29;43.07;95715.13;6029647;28;103737;-69
2022/11/10 04:27:55;;;;;;;18.20;16.53;;;;;;;20.32;43.12;95711.91;6019827;28;104000;-68
2022/11/10 04:30:58;;;;;;;18.33;16.80;;;;;;;20.25;42.74;95717.56;6016497;28;103888;-66
2022/11/10 04:34:01;;;;;;;20.13;18.53;;;;;;;20.23;41.43;95721.53;6025611;28;104429;-65
2022/11/10 04:37:04;;;;;;;22.17;20.17;;;;;;;19.83;40.08;95719.94;6027836;28;103676;-67
2022/11/10 04:40:10;;;;;;;20.57;18.60;;;;;;;19.89;40.70;95729.44;6028071;28;103761;-66
2022/11/10 04:43:13;;;;;;;20.23;18.30;;;;;;;19.98;40.43;95725.13;6011441;28;104905;-65
2022/11/10 04:46:23;;;;;;;19.57;17.90;;;;;;;20.00;40.49;95726.47;6017159;28;104158;-65
2022/11/10 04:49:26;;;;;;;20.30;18.70;;;;;;;19.93;39.90;95719.84;6022838;28;104080;-65
2022/11/10 04:52:29;;;;;;;20.40;18.60;;;;;;;19.91;39.76;95728.09;6023832;28;105388;-66
2022/11/10 04:55:33;;;;;;;22.00;20.20;;;;;;;19.83;39.84;95730.56;6012508;28;103706;-65
2022/11/10 04:58:36;;;;;;;21.93;20.13;;;;;;;19.83;39.56;95726.03;6020697;28;103831;-66
2022/11/10 05:01:39;;;;;;;23.90;21.70;;;;;;;19.83;39.46;95723.38;6017492;28;103858;-66
2022/11/10 05:04:42;;;;;;;24.20;22.10;;;;;;;19.83;39.90;95727.91;6010465;28;103882;-66
2022/11/10 05:07:47;;;;;;;25.07;22.77;;;;;;;19.89;40.34;95732.09;6016560;28;104027;-63
2022/11/10 05:10:52;;;;;;;27.40;24.90;;;;;;;19.96;41.04;95729.94;6019031;28;104918;-65
2022/11/10 05:13:55;;;;;;;24.13;21.83;;;;;;;19.96;41.33;95735.25;6023253;28;103910;-65
2022/11/10 05:16:58;;;;;;;23.70;21.30;;;;;;;20.00;41.67;95738.97;6018123;28;104037;-66
2022/11/10 05:20:02;;;;;;;22.50;20.40;;;;;;;20.01;41.86;95732.56;6017315;28;104436;-68
2022/11/10 05:26:27;;;;;;;22.13;20.03;;;;;;;20.09;41.44;95733.84;6016058;28;103901;-68
2022/11/10 05:29:30;;;;;;;22.10;20.00;;;;;;;20.11;41.52;95737.03;6008028;28;104191;-68
2022/11/10 05:32:33;;;;;;;22.30;20.40;;;;;;;20.07;41.64;95742.09;6016871;28;103753;-69
2022/11/10 05:35:37;;;;;;;21.63;19.73;;;;;;;20.07;41.67;95747.41;6017291;28;103840;-69
2022/11/10 05:38:40;;;;;;;21.33;19.00;;;;;;;20.06;41.77;95745.81;6011431;28;103792;-69
2022/11/10 05:41:47;;;;;;;20.90;19.00;;;;;;;20.06;41.82;95753.78;6012635;28;104205;-69
2022/11/10 05:44:50;;;;;;;20.70;18.80;;;;;;;20.06;41.57;95748.47;6014398;28;103779;-69
2022/11/10 05:47:54;;;;;;;21.83;19.90;;;;;;;20.04;41.63;95758.59;6013530;28;103751;-68
2022/11/10 05:50:57;;;;;;;21.47;19.37;;;;;;;20.04;41.68;95755.94;6004148;28;104315;-69
2022/11/10 05:54:00;;;;;;;20.60;18.80;;;;;;;20.05;41.74;95760.19;6014507;28;103798;-68
2022/11/10 05:57:04;;;;;;;22.37;20.27;;;;;;;20.05;41.74;95760.19;6015048;28;103590;-68
2022/11/10 06:00:09;;;;;;;22.00;20.00;;;;;;;20.04;41.68;95763.91;6017248;28;103967;-68
2022/11/10 06:03:14;;;;;;;21.40;19.40;;;;;;;20.07;41.66;95762.56;6007618;28;103755;-67
2022/11/10 06:06:18;;;;;;;21.17;19.27;;;;;;;20.08;41.64;95766.78;6017905;28;103772;-69
2022/11/10 06:09:20;;;;;;;23.10;21.10;;;;;;;20.10;41.72;95762.78;6017177;28;103873;-68
2022/11/10 06:12:29;;;;;;;22.77;20.77;;;;;;;20.08;41.83;95774.78;6013001;28;103794;-68
2022/11/10 06:15:32;;;;;;;22.10;20.10;;;;;;;20.35;41.23;95769.06;6011916;28;104112;-69
2022/11/10 06:18:35;;;;;;;23.07;20.90;;;;;;;20.24;41.21;95774.44;6016716;28;103871;-69
2022/11/10 06:21:38;;;;;;;22.40;20.50;;;;;;;20.21;41.64;95780.28;6017209;28;103875;-70
2022/11/10 06:24:41;;;;;;;24.87;22.67;;;;;;;20.30;41.36;95780.50;6008092;28;104030;-69
2022/11/10 06:27:46;;;;;;;23.53;21.43;;;;;;;21.08;39.70;95791.09;6021616;28;103993;-69
2022/11/10 06:30:49;;;;;;;24.40;22.20;;;;;;;21.71;39.30;95800.84;6020969;28;103764;-69
2022/11/10 06:33:52;;;;;;;25.23;22.97;;;;;;;21.87;38.96;95804.16;6020961;28;104035;-69
2022/11/10 06:36:55;;;;;;;25.47;23.27;;;;;;;21.39;39.79;95809.44;6011506;28;103861;-69
2022/11/10 06:39:58;;;;;;;27.67;25.23;;;;;;;20.96;40.92;95813.78;6021248;28;104013;-69
2022/11/10 06:43:02;;;;;;;27.47;25.07;;;;;;;20.85;41.65;95816.56;6021519;28;103866;-69
2022/11/10 06:46:05;;;;;;;27.37;25.07;;;;;;;20.79;41.95;95822.16;6020594;28;104074;-70
2022/11/10 06:49:09;;;;;;;27.60;25.20;;;;;;;20.76;42.01;95817.41;6009460;28;104052;-69
2022/11/10 06:52:11;;;;;;;29.10;26.60;;;;;;;20.78;41.95;95828.56;6020051;28;103551;-69
2022/11/10 06:55:15;;;;;;;28.60;26.10;;;;;;;20.79;41.83;95822.16;6019980;28;103730;-69
2022/11/10 06:58:19;;;;;;;25.93;23.60;;;;;;;20.78;41.41;95828.56;6013889;28;103962;-69
2022/11/10 07:01:25;;;;;;;28.00;25.60;;;;;;;20.80;41.57;95832.53;6017790;28;103768;-69
2022/11/10 07:04:29;;;;;;;26.73;24.53;;;;;;;20.85;41.45;95829.84;6019911;28;103706;-69
2022/11/10 07:07:32;;;;;;;26.23;24.10;;;;;;;20.87;41.38;95833.03;6019614;29;104904;-69
2022/11/10 07:10:36;;;;;;;29.70;27.20;;;;;;;20.90;41.36;95837.78;6009679;28;103849;-70
2022/11/10 07:13:40;;;;;;;31.70;29.00;;;;;;;20.91;41.18;95835.91;6019926;28;103828;-69
2022/11/10 07:16:43;;;;;;;33.80;30.70;;;;;;;20.96;41.64;95832.41;6019648;28;104563;-69
2022/11/10 07:19:46;;;;;;;32.50;29.60;;;;;;;20.98;41.35;95838.25;6018560;28;103796;-69
2022/11/10 07:22:49;;;;;;;35.50;32.20;;;;;;;21.01;41.24;95841.16;6009460;28;104035;-69
2022/11/10 07:25:53;;;;;;;34.67;31.77;;;;;;;21.05;40.93;95838.78;6056573;23;105755;-82
2022/11/10 07:28:57;;;;;;;34.97;31.97;;;;;;;21.07;41.28;95845.41;6022617;29;106911;-82
2022/11/10 07:32:00;;;;;;;35.43;32.40;;;;;;;21.11;40.79;95848.28;6019865;28;105082;-81
2022/11/10 07:35:04;;;;;;;35.70;32.70;;;;;;;21.15;41.16;95850.09;6000120;28;103307;-82
2022/11/10 07:38:10;;;;;;;36.57;33.37;;;;;;;21.18;41.07;95838.13;6021721;29;104458;-81
2022/11/10 07:41:13;;;;;;;36.20;32.90;;;;;;;21.21;40.89;95848.22;6024090;29;107258;-81
2022/11/10 07:44:17;;;;;;;36.60;33.17;;;;;;;21.13;40.57;95828.31;6016783;28;107270;-81
2022/11/10 07:47:20;;;;;;;36.23;33.03;;;;;;;21.26;41.03;95848.16;6024831;29;104051;-82
2022/11/10 07:50:23;;;;;;;37.33;34.03;;;;;;;21.23;40.75;95838.06;6022941;28;103795;-82
2022/11/10 07:53:27;;;;;;;36.33;33.13;;;;;;;21.25;41.01;95830.59;6024872;29;106273;-81
2022/11/10 07:56:30;;;;;;;36.77;33.53;;;;;;;21.29;41.17;95831.63;6016425;28;106076;-82
2022/11/10 07:59:34;;;;;;;35.47;32.40;;;;;;;21.29;40.76;95831.63;6024445;29;108153;-83
2022/11/10 08:02:38;;;;;;;34.03;31.03;;;;;;;21.35;41.48;95841.16;6024895;28;104257;-82
2022/11/10 08:05:41;;;;;;;32.53;29.73;;;;;;;21.24;41.38;95817.56;6024886;29;106109;-83
2022/11/10 08:08:46;;;;;;;30.33;27.63;;;;;;;21.29;41.45;95839.59;6017737;28;104839;-84
2022/11/10 08:11:49;;;;;;;29.60;27.10;;;;;;;21.31;41.37;95834.78;6025391;29;104026;-81
2022/11/10 08:14:53;;;;;;;27.37;25.17;;;;;;;21.30;41.18;95835.06;6024273;29;107557;-82
2022/11/10 08:18:00;;;;;;;30.00;27.47;;;;;;;21.32;41.36;95840.91;6016364;28;104225;-82
2022/11/10 08:21:04;;;;;;;29.23;26.60;;;;;;;21.31;41.47;95832.13;6022578;28;103901;-82
2022/11/10 08:24:08;;;;;;;30.23;27.63;;;;;;;21.30;41.26;95835.88;6023832;28;107025;-81
2022/11/10 08:27:11;;;;;;;29.33;26.83;;;;;;;21.29;41.44;95833.47;6022762;29;107317;-81
2022/11/10 08:30:16;;;;;;;28.10;25.80;;;;;;;21.31;41.59;95842.78;6015006;28;105915;-81
2022/11/10 08:33:21;;;;;;;29.03;26.63;;;;;;;21.30;41.24;95838.53;6022682;28;103879;-81
2022/11/10 08:36:25;;;;;;;28.57;26.17;;;;;;;21.29;41.43;95850.25;6022815;28;106786;-80
2022/11/10 08:39:28;;;;;;;27.60;25.10;;;;;;;21.27;41.18;95849.75;6023313;28;104284;-82
2022/11/10 08:42:41;;;;;;;29.23;26.63;;;;;;;21.27;41.40;95849.75;6044005;23;106121;-66
2022/11/10 08:45:46;;;;;;;30.47;27.87;;;;;;;21.26;41.39;95848.16;6018526;29;104015;-66
2022/11/10 08:48:49;;;;;;;28.17;25.80;;;;;;;21.25;41.16;95851.09;6017472;28;103901;-66
2022/11/10 08:51:52;;;;;;;29.00;26.50;;;;;;;21.25;41.12;95845.78;6007829;28;103863;-65
2022/11/10 08:54:56;;;;;;;28.30;25.87;;;;;;;21.24;41.52;95849.50;6034593;23;104905;-66
2022/11/10 08:58:00;;;;;;;28.53;26.10;;;;;;;21.23;41.31;95851.38;6016916;28;103799;-66
2022/11/10 09:01:08;;;;;;;29.30;26.70;;;;;;;21.23;41.57;95859.38;6017951;29;104980;-66
2022/11/10 09:04:14;;;;;;;29.30;26.70;;;;;;;21.24;41.25;95858.28;6007605;28;104933;-66
2022/11/10 09:07:17;;;;;;;27.90;25.60;;;;;;;21.22;41.45;95860.44;6016574;28;103921;-66
2022/11/10 09:10:20;;;;;;;27.70;25.30;;;;;;;21.25;41.69;95854.56;6017563;28;103738;-66
2022/11/10 09:13:23;;;;;;;27.23;24.73;;;;;;;21.24;41.34;95852.19;6017384;29;104410;-66
2022/11/10 09:16:33;;;;;;;26.43;24.23;;;;;;;21.24;41.37;95860.94;6006624;28;103766;-66
2022/11/10 09:19:36;;;;;;;26.00;23.70;;;;;;;21.25;41.19;95857.22;6017757;28;103580;-67
2022/11/10 09:22:39;;;;;;;26.53;24.07;;;;;;;21.23;41.39;95851.38;6017337;29;103713;-65
2022/11/10 09:25:48;;;;;;;27.20;24.90;;;;;;;21.23;41.39;95853.25;6012961;28;105019;-66
2022/11/10 09:28:51;;;;;;;33.47;30.53;;;;;;;21.20;41.31;95844.75;6016788;29;105313;-66
2022/11/10 09:31:56;;;;;;;102.37;94.40;;;;;;;21.23;41.36;95847.94;6017912;28;103941;-67
2022/11/10 09:35:00;;;;;;;156.90;145.47;;;;;;;21.22;42.22;95839.16;6017122;28;103668;-66
2022/11/10 09:38:04;;;;;;;149.13;138.00;;;;;;;21.24;42.28;95841.53;6006787;28;103811;-65
2022/11/10 09:41:10;;;;;;;125.93;116.53;;;;;;;21.24;42.31;95839.66;6017848;29;103517;-66
2022/11/10 09:44:19;;;;;;;111.27;102.97;;;;;;;21.27;42.19;95836.44;6017954;29;103691;-66
2022/11/10 09:47:28;;;;;;;101.80;94.10;;;;;;;21.30;41.82;95830.53;6017098;28;103872;-66
2022/11/10 09:50:57;;;;;;;96.90;89.47;;;;;;;21.33;42.17;95829.97;6006871;28;103525;-66
2022/11/10 09:54:04;;;;;;;92.30;85.33;;;;;;;21.33;42.08;95821.19;5992351;29;103790;-65
2022/11/10 09:57:12;;;;;;;85.67;79.13;;;;;;;21.35;41.65;95830.50;5993520;29;103751;-66
2022/11/10 10:00:17;;;;;;;82.40;76.07;;;;;;;21.35;41.92;95827.84;5984697;29;103657;-65
2022/11/10 10:03:29;;;;;;;79.80;73.70;;;;;;;21.33;41.95;95822.00;5993022;29;105206;-65
2022/11/10 10:06:42;;;;;;;74.47;68.73;;;;;;;21.37;41.68;95822.25;5994210;29;106608;-65
2022/11/10 10:10:15;;;;;;;70.70;65.20;;;;;;;21.37;42.04;95828.38;5993828;29;103353;-65
2022/11/10 10:13:27;;;;;;;69.20;63.80;;;;;;;21.36;41.82;95824.13;5983100;29;104220;-65
2022/11/10 10:16:37;;;;;;;63.37;58.37;;;;;;;21.36;41.92;95820.66;5993936;29;103723;-65
2022/11/10 10:19:49;;;;;;;64.57;59.47;;;;;;;21.37;41.51;95817.72;5993267;29;103939;-65
2022/11/10 10:23:03;;;;;;;60.07;55.27;;;;;;;21.35;41.65;95817.19;5987054;29;103896;-65
2022/11/10 10:26:13;;;;;;;58.00;53.40;;;;;;;21.36;41.61;95816.13;5991208;29;103825;-65
2022/11/10 10:29:21;;;;;;;56.50;52.00;;;;;;;21.35;41.49;95817.19;5993278;29;103861;-66
2022/11/10 10:32:26;;;;;;;53.40;49.10;;;;;;;21.33;41.94;95808.69;5993260;29;103885;-65
2022/11/10 10:35:33;;;;;;;53.57;49.17;;;;;;;21.33;41.88;95808.69;5982392;29;105131;-65
2022/11/10 10:38:46;;;;;;;52.90;48.60;;;;;;;21.34;41.76;95806.81;5993009;29;104233;-66
2022/11/10 10:41:49;;;;;;;50.97;46.77;;;;;;;21.33;41.84;95808.69;5993032;29;103463;-65
2022/11/10 10:45:15;;;;;;;49.63;45.50;;;;;;;21.33;41.97;95810.53;5992740;29;106237;-65
2022/11/10 10:48:26;;;;;;;48.17;44.17;;;;;;;21.30;42.03;95805.78;5987369;29;104395;-65
2022/11/10 10:51:32;;;;;;;47.37;43.57;;;;;;;21.31;41.93;95804.72;5993722;29;103964;-66
2022/11/10 10:54:36;;;;;;;45.97;42.27;;;;;;;21.30;41.57;95800.47;5992195;29;104204;-66
2022/11/10 10:57:50;;;;;;;43.43;39.93;;;;;;;21.27;41.74;95795.72;5980355;29;103872;-66
2022/11/10 11:01:01;;;;;;;44.30;40.70;;;;;;;21.28;41.84;95787.44;5993209;29;104061;-66
2022/11/10 11:04:25;;;;;;;42.67;39.10;;;;;;;21.26;41.51;95792.25;5992967;29;106486;-66
2022/11/10 11:07:29;;;;;;;41.23;37.93;;;;;;;21.28;41.84;95786.66;5993473;29;105182;-66
2022/11/10 11:10:35;;;;;;;40.37;36.97;;;;;;;21.26;41.60;95784.28;5982912;29;107319;-66
2022/11/10 11:13:38;;;;;;;39.63;36.43;;;;;;;21.25;41.91;95781.88;5996832;29;104097;-66
2022/11/10 11:16:48;;;;;;;38.10;35.00;;;;;;;21.23;41.70;95779.50;5996579;29;104109;-66
2022/11/10 11:19:53;;;;;;;38.30;35.00;;;;;;;21.22;42.04;95777.94;5986571;29;104104;-66
2022/11/10 11:23:14;;;;;;;36.83;33.73;;;;;;;21.21;41.64;95771.03;5996439;29;103429;-66
2022/11/10 11:26:22;;;;;;;36.57;33.77;;;;;;;21.19;42.26;95767.84;5996100;29;104069;-66
2022/11/10 11:29:51;;;;;;;35.33;32.43;;;;;;;21.18;42.15;95768.94;5995442;29;103881;-66
2022/11/10 11:33:15;;;;;;;34.37;31.37;;;;;;;21.17;42.01;95762.00;5985960;29;104936;-65
2022/11/10 11:36:30;;;;;;;33.60;30.70;;;;;;;21.17;41.92;95762.00;5996762;29;103759;-66
2022/11/10 11:39:48;;;;;;;34.30;31.40;;;;;;;21.16;41.76;95757.75;5996220;29;104691;-66
2022/11/10 11:43:02;;;;;;;33.20;30.40;;;;;;;21.15;41.83;95750.84;5986308;29;103774;-66
2022/11/10 11:46:16;;;;;;;32.37;29.67;;;;;;;21.13;41.85;95753.78;5996162;29;103875;-67
2022/11/10 11:49:52;;;;;;;32.03;29.43;;;;;;;21.13;41.87;95753.00;5996313;29;103414;-66
2022/11/10 11:53:03;;;;;;;33.20;30.40;;;;;;;21.11;42.23;95749.81;5985920;29;103864;-66
2022/11/10 11:56:19;;;;;;;32.03;29.40;;;;;;;21.10;42.22;95749.03;5987960;29;103730;-66
2022/11/10 11:59:34;;;;;;;30.97;28.23;;;;;;;21.08;42.06;95745.84;5995383;29;103735;-66
2022/11/10 12:03:07;;;;;;;31.30;28.60;;;;;;;21.08;42.04;95753.06;5994815;29;103900;-67
2022/11/10 12:06:23;;;;;;;31.17;28.47;;;;;;;21.07;42.29;95751.47;5983215;29;104141;-67
2022/11/10 12:09:37;;;;;;;30.10;27.60;;;;;;;21.09;42.23;95755.44;5995716;29;103543;-67
2022/11/10 12:13:05;;;;;;;29.67;27.23;;;;;;;21.06;42.02;95749.88;5995615;29;104012;-67
2022/11/10 12:16:18;;;;;;;30.77;28.17;;;;;;;21.06;42.30;95753.34;5991299;29;104507;-67
2022/11/10 12:19:30;;;;;;;28.57;26.07;;;;;;;21.03;42.22;95759.19;5990607;29;103488;-67
2022/11/10 12:22:41;;;;;;;29.07;26.57;;;;;;;21.04;42.07;95757.31;5994157;29;103707;-67
2022/11/10 12:25:53;;;;;;;28.50;26.10;;;;;;;21.02;42.20;95748.84;5995074;29;104399;-67
2022/11/10 12:29:04;;;;;;;28.07;25.67;;;;;;;21.03;42.25;95748.56;5985619;29;104947;-67
2022/11/10 12:32:16;;;;;;;28.40;25.90;;;;;;;21.01;42.37;95753.38;5994920;29;103813;-67
2022/11/10 12:35:22;;;;;;;28.53;26.03;;;;;;;21.00;42.55;95757.06;5994180;29;103842;-67
2022/11/10 12:38:35;;;;;;;26.70;24.47;;;;;;;21.01;42.36;95752.56;5995182;29;103719;-66
2022/11/10 12:41:44;;;;;;;26.60;24.40;;;;;;;21.01;42.09;95757.88;5989190;29;103579;-67
2022/11/10 12:45:01;;;;;;;26.57;24.37;;;;;;;21.00;42.43;95758.94;5994758;29;106970;-67
2022/11/10 12:48:05;;;;;;;26.17;23.90;;;;;;;21.00;42.23;95753.63;5994282;29;103726;-66
2022/11/10 12:51:13;;;;;;;26.47;24.17;;;;;;;20.99;42.18;95762.66;5984462;29;103905;-67
2022/11/10 12:54:19;;;;;;;26.20;23.90;;;;;;;20.98;42.04;95753.91;5994024;29;104845;-66
2022/11/10 12:57:26;;;;;;;27.60;25.20;;;;;;;20.97;42.41;95756.84;5995244;29;107574;-66
2022/11/10 13:00:32;;;;;;;25.40;23.30;;;;;;;20.97;42.16;95759.50;5995070;29;103949;-66
2022/11/10 13:03:37;;;;;;;26.70;24.50;;;;;;;20.96;42.55;95752.59;5984898;29;103782;-66
2022/11/10 13:06:48;;;;;;;26.13;23.83;;;;;;;20.95;42.47;95751.00;5994336;29;104195;-66
2022/11/10 13:09:52;;;;;;;25.20;22.90;;;;;;;20.95;42.34;95759.00;5994513;29;103710;-67
2022/11/10 13:13:07;;;;;;;24.93;22.87;;;;;;;20.93;42.51;95762.72;5990168;29;105056;-66
2022/11/10 13:16:52;;;;;;;24.60;22.40;;;;;;;20.92;42.20;95763.81;5989808;29;104725;-66
2022/11/10 13:19:59;;;;;;;24.83;22.83;;;;;;;20.92;42.55;95763.00;5995408;29;103424;-67
2022/11/10 13:23:24;;;;;;;23.60;21.53;;;;;;;20.90;42.08;95760.63;5994763;29;103742;-67
2022/11/10 13:26:48;;;;;;;24.03;21.93;;;;;;;20.89;42.52;95758.25;5984514;29;104097;-67
2022/11/10 13:29:57;;;;;;;24.40;22.37;;;;;;;20.90;42.17;95773.16;5995547;29;103938;-67
2022/11/10 13:36:42;;;;;;;22.93;21.03;;;;;;;20.88;42.66;95767.31;6199848;28;104254;-66
2022/11/10 13:39:45;;;;;;;22.77;20.87;;;;;;;20.87;42.32;95769.19;6206619;28;103228;-65
2022/11/10 13:43:22;;;;;;;23.43;21.43;;;;;;;20.84;42.49;95769.75;6206668;28;102943;-65
2022/11/10 13:46:35;;;;;;;22.50;20.60;;;;;;;20.85;42.33;95767.88;6207035;28;102624;-65
2022/11/10 13:49:54;;;;;;;22.70;20.80;;;;;;;20.84;42.53;95772.41;6200123;28;102939;-66
2022/11/10 13:53:15;;;;;;;21.73;19.83;;;;;;;20.83;42.52;95773.44;6206569;28;103062;-66
2022/11/10 13:56:35;;;;;;;22.03;20.13;;;;;;;20.83;42.73;95770.78;6181908;28;103607;-66
2022/11/10 13:59:47;;;;;;;23.10;21.10;;;;;;;20.82;42.79;95777.19;6170785;28;104097;-65
2022/11/10 14:02:53;;;;;;;22.67;20.77;;;;;;;20.82;42.34;95776.38;6181162;28;103133;-65
2022/11/10 14:06:04;;;;;;;22.53;20.60;;;;;;;20.81;42.53;95772.94;6181221;28;102920;-66
2022/11/10 14:09:23;;;;;;;22.47;20.50;;;;;;;20.80;42.63;95775.88;6180632;28;104159;-65
2022/11/10 14:12:30;;;;;;;21.97;20.07;;;;;;;20.80;42.80;95782.00;6175170;28;103072;-66
2022/11/10 14:15:39;;;;;;;21.03;19.30;;;;;;;20.78;42.73;95781.47;6180745;27;103090;-66
2022/11/10 14:18:49;;;;;;;21.03;19.23;;;;;;;20.78;42.38;95784.13;6180754;28;102967;-65
2022/11/10 14:21:56;;;;;;;21.07;19.27;;;;;;;20.78;42.73;95784.13;6170069;28;103513;-65
2022/11/10 14:25:06;;;;;;;21.70;19.90;;;;;;;20.77;42.61;95790.53;6180645;28;105528;-65
2022/11/10 14:28:26;;;;;;;22.07;20.17;;;;;;;20.77;42.45;95779.09;6181094;28;103105;-66